createdAt,value
2022-11-27T00:00:26.171Z,6.95
2022-11-27T00:03:00.377Z,5.78
2022-11-27T00:05:36.293Z,6.13
2022-11-27T00:08:07.574Z,6.57
2022-11-27T00:10:47.773Z,6.35
2022-11-27T00:13:35.968Z,4.60
2022-11-27T00:16:14.433Z,5.25
2022-11-27T00:18:48.121Z,5.22
2022-11-27T00:21:26.993Z,5.50
2022-11-27T00:24:02.248Z,8.13
2022-11-27T00:26:38.292Z,6.68
2022-11-27T00:29:17.724Z,6.18
2022-11-27T00:31:53.024Z,6.72
2022-11-27T00:34:24.481Z,7.47
2022-11-27T00:36:55.909Z,6.93
2022-11-27T00:39:28.010Z,5.97
2022-11-27T00:42:03.049Z,6.13
2022-11-27T00:44:38.001Z,6.07
2022-11-27T00:47:16.017Z,5.53
2022-11-27T00:49:51.004Z,8.20
2022-11-27T00:52:27.501Z,6.18
2022-11-27T00:55:07.348Z,6.90
2022-11-27T00:57:41.837Z,5.63
2022-11-27T01:00:14.057Z,8.48
2022-11-27T01:02:46.570Z,6.68
2022-11-27T01:05:17.806Z,8.20
2022-11-27T01:07:51.877Z,5.38
2022-11-27T01:10:25.336Z,6.88
2022-11-27T01:12:57.338Z,7.85
2022-11-27T01:15:57.895Z,6.32
2022-11-27T01:18:38.257Z,6.68
2022-11-27T01:21:10.456Z,5.15
2022-11-27T01:23:44.838Z,5.10
2022-11-27T01:26:17.904Z,7.60
2022-11-27T01:28:57.550Z,6.22
2022-11-27T01:31:34.615Z,5.72
2022-11-27T01:34:07.690Z,4.82
2022-11-27T01:36:39.831Z,5.72
2022-11-27T01:39:20.474Z,5.97
2022-11-27T01:41:55.090Z,5.57
2022-11-27T01:44:53.958Z,6.15
2022-11-27T01:47:32.787Z,5.10
2022-11-27T01:50:10.054Z,6.93
2022-11-27T01:52:45.471Z,4.78
2022-11-27T01:55:23.645Z,5.18
2022-11-27T01:58:14.044Z,6.97
2022-11-27T02:00:50.189Z,5.75
2022-11-27T02:03:30.344Z,6.55
2022-11-27T02:06:01.172Z,6.38
2022-11-27T02:08:32.525Z,5.97
2022-11-27T02:11:13.740Z,5.13
2022-11-27T02:13:53.565Z,6.22
2022-11-27T02:16:34.394Z,5.97
2022-11-27T02:19:18.005Z,5.82
2022-11-27T02:22:02.755Z,6.57
2022-11-27T02:24:57.954Z,6.28
2022-11-27T02:28:07.773Z,9.00
2022-11-27T02:30:57.984Z,5.60
2022-11-27T02:33:46.257Z,6.20
2022-11-27T02:36:31.603Z,7.75
2022-11-27T02:39:16.252Z,5.50
2022-11-27T02:41:54.870Z,5.78
2022-11-27T02:44:35.642Z,6.40
2022-11-27T02:47:10.745Z,7.10
2022-11-27T02:49:44.492Z,7.40
2022-11-27T02:52:24.531Z,7.22
2022-11-27T02:54:59.527Z,6.38
2022-11-27T02:57:36.882Z,6.63
2022-11-27T03:00:21.166Z,8.10
2022-11-27T03:02:59.358Z,7.63
2022-11-27T03:05:37.420Z,6.65
2022-11-27T03:08:24.407Z,7.35
2022-11-27T03:11:03.117Z,5.35
2022-11-27T03:13:38.300Z,7.72
2022-11-27T03:19:03.077Z,7.65
2022-11-27T03:21:42.289Z,7.45
2022-11-27T03:24:21.422Z,7.22
2022-11-27T03:27:04.299Z,6.97
2022-11-27T03:29:42.361Z,6.63
2022-11-27T03:32:15.258Z,7.40
2022-11-27T03:34:55.657Z,8.07
2022-11-27T03:37:27.649Z,9.73
2022-11-27T03:39:59.253Z,8.98
2022-11-27T03:42:42.464Z,9.27
2022-11-27T03:45:33.038Z,7.85
2022-11-27T03:48:19.170Z,8.63
2022-11-27T03:51:09.708Z,9.90
2022-11-27T03:53:55.860Z,10.30
2022-11-27T03:56:38.185Z,7.90
2022-11-27T03:59:15.896Z,8.25
2022-11-27T04:01:49.699Z,7.63
2022-11-27T04:04:22.401Z,9.23
2022-11-27T04:07:18.989Z,9.70
2022-11-27T04:09:48.798Z,8.75
2022-11-27T04:12:21.534Z,8.73
2022-11-27T04:15:02.702Z,8.32
2022-11-27T04:17:43.444Z,7.68
2022-11-27T04:20:22.076Z,9.27
2022-11-27T04:23:03.092Z,8.35
2022-11-27T04:25:49.298Z,7.53
2022-11-27T04:28:23.993Z,9.05
2022-11-27T04:30:57.860Z,8.20
2022-11-27T04:33:31.326Z,10.68
2022-11-27T04:36:02.238Z,9.52
2022-11-27T04:38:33.198Z,8.35
2022-11-27T04:41:03.446Z,11.23
2022-11-27T04:43:37.746Z,8.60
2022-11-27T04:46:08.142Z,11.13
2022-11-27T04:48:38.700Z,9.52
2022-11-27T04:51:11.121Z,9.18
2022-11-27T04:53:47.126Z,11.13
2022-11-27T04:56:21.525Z,11.25
2022-11-27T04:58:59.015Z,8.48
2022-11-27T05:01:34.571Z,10.88
2022-11-27T05:04:09.303Z,13.57
2022-11-27T05:06:48.445Z,10.25
2022-11-27T05:09:25.373Z,9.65
2022-11-27T05:12:04.039Z,9.70
2022-11-27T05:14:37.667Z,10.20
2022-11-27T05:17:10.163Z,9.50
2022-11-27T05:19:43.624Z,8.82
2022-11-27T05:22:29.812Z,10.23
2022-11-27T05:25:11.400Z,9.38
2022-11-27T05:27:50.094Z,9.23
2022-11-27T05:30:26.481Z,8.18
2022-11-27T05:32:58.116Z,10.38
2022-11-27T05:35:29.393Z,9.45
2022-11-27T05:38:08.162Z,9.90
2022-11-27T05:40:47.994Z,8.98
2022-11-27T05:43:28.788Z,12.18
2022-11-27T05:45:59.909Z,9.20
2022-11-27T05:48:30.160Z,9.60
2022-11-27T05:51:01.300Z,7.63
2022-11-27T05:53:35.023Z,8.38
2022-11-27T05:56:14.859Z,8.55
2022-11-27T05:58:54.926Z,7.63
2022-11-27T06:01:26.834Z,8.98
2022-11-27T06:04:06.079Z,8.30
2022-11-27T06:06:37.514Z,8.70
2022-11-27T06:09:13.887Z,8.20
2022-11-27T06:11:52.634Z,7.47
2022-11-27T06:14:33.991Z,9.48
2022-11-27T06:19:41.735Z,7.50
2022-11-27T06:22:19.592Z,8.90
2022-11-27T06:24:50.107Z,7.63
2022-11-27T06:27:27.787Z,8.68
2022-11-27T06:30:11.596Z,10.10
2022-11-27T06:32:43.740Z,9.50
2022-11-27T06:35:15.260Z,11.23
2022-11-27T06:37:44.075Z,7.25
2022-11-27T06:40:13.497Z,8.25
2022-11-27T06:42:50.924Z,8.05
2022-11-27T06:45:22.556Z,8.60
2022-11-27T06:47:51.387Z,7.97
2022-11-27T06:50:20.348Z,9.95
2022-11-27T06:52:48.981Z,6.18
2022-11-27T06:55:23.884Z,8.25
2022-11-27T06:57:55.965Z,7.85
2022-11-27T07:00:25.214Z,8.52
2022-11-27T07:02:56.807Z,8.27
2022-11-27T07:05:26.297Z,10.32
2022-11-27T07:07:57.823Z,7.50
2022-11-27T07:10:29.380Z,11.43
2022-11-27T07:13:01.585Z,10.70
2022-11-27T07:15:30.753Z,7.47
2022-11-27T07:18:01.650Z,7.72
2022-11-27T07:20:30.312Z,8.35
2022-11-27T07:22:58.999Z,9.80
2022-11-27T07:25:28.726Z,7.90
2022-11-27T07:27:58.729Z,7.18
2022-11-27T07:30:32.141Z,10.27
2022-11-27T07:33:03.784Z,8.95
2022-11-27T07:35:35.723Z,8.20
2022-11-27T07:38:05.367Z,9.45
2022-11-27T07:40:34.163Z,9.13
2022-11-27T07:43:09.171Z,7.00
2022-11-27T07:45:47.562Z,8.45
2022-11-27T07:48:16.573Z,8.15
2022-11-27T07:50:46.448Z,7.50
2022-11-27T07:53:16.005Z,8.07
2022-11-27T07:55:45.422Z,7.40
2022-11-27T07:58:14.256Z,8.02
2022-11-27T08:00:45.592Z,9.05
2022-11-27T08:03:14.192Z,7.95
2022-11-27T08:05:49.303Z,6.63
2022-11-27T08:08:18.588Z,7.47
2022-11-27T08:10:50.688Z,5.35
2022-11-27T08:13:22.361Z,8.48
2022-11-27T08:16:03.251Z,8.98
2022-11-27T08:18:32.613Z,6.13
2022-11-27T08:21:03.020Z,7.57
2022-11-27T08:23:33.261Z,6.38
2022-11-27T08:26:08.574Z,7.93
2022-11-27T08:28:48.544Z,6.25
2022-11-27T08:31:22.619Z,6.00
2022-11-27T08:33:51.931Z,7.03
2022-11-27T08:36:20.719Z,6.82
2022-11-27T08:38:55.566Z,5.22
2022-11-27T08:41:24.223Z,8.25
2022-11-27T08:43:56.571Z,6.22
2022-11-27T08:46:27.575Z,6.93
2022-11-27T08:48:57.665Z,8.05
2022-11-27T08:51:29.823Z,6.90
2022-11-27T08:54:02.319Z,5.90
2022-11-27T08:56:33.931Z,6.38
2022-11-27T08:59:05.032Z,5.80
2022-11-27T09:01:35.965Z,11.00
2022-11-27T09:04:05.910Z,7.88
2022-11-27T09:06:39.306Z,5.57
2022-11-27T09:09:09.088Z,6.53
2022-11-27T09:11:44.547Z,7.35
2022-11-27T09:14:25.247Z,6.43
2022-11-27T09:17:04.372Z,6.20
2022-11-27T09:19:39.050Z,5.85
2022-11-27T09:22:13.264Z,5.93
2022-11-27T09:24:47.311Z,5.53
2022-11-27T09:27:16.673Z,5.80
2022-11-27T09:29:46.003Z,6.25
2022-11-27T09:32:21.343Z,6.57
2022-11-27T09:34:53.746Z,6.30
2022-11-27T09:37:24.160Z,6.43
2022-11-27T09:39:53.861Z,9.73
2022-11-27T09:42:37.755Z,7.00
2022-11-27T09:45:13.422Z,6.05
2022-11-27T09:47:52.574Z,7.18
2022-11-27T09:50:34.813Z,6.13
2022-11-27T09:53:13.036Z,8.13
2022-11-27T09:55:46.819Z,7.47
2022-11-27T09:58:19.042Z,8.27
2022-11-27T10:00:53.527Z,5.70
2022-11-27T10:03:33.872Z,7.03
2022-11-27T10:06:14.519Z,8.15
2022-11-27T10:08:53.006Z,5.88
2022-11-27T10:11:35.622Z,5.18
2022-11-27T10:14:21.759Z,6.22
2022-11-27T10:16:55.429Z,6.60
2022-11-27T10:19:38.938Z,7.20
2022-11-27T10:22:21.424Z,6.47
2022-11-27T10:25:04.171Z,7.40
2022-11-27T10:27:43.186Z,6.32
2022-11-27T10:30:19.088Z,6.20
2022-11-27T10:32:55.749Z,6.65
2022-11-27T10:35:32.035Z,6.03
2022-11-27T10:38:11.489Z,5.70
2022-11-27T10:40:50.488Z,6.50
2022-11-27T10:43:23.448Z,7.68
2022-11-27T10:46:00.685Z,6.40
2022-11-27T10:48:30.227Z,5.85
2022-11-27T10:51:06.406Z,6.25
2022-11-27T10:53:38.765Z,6.13
2022-11-27T10:56:43.122Z,7.05
2022-11-27T10:59:15.328Z,6.10
2022-11-27T11:01:46.719Z,5.50
2022-11-27T11:04:37.478Z,6.95
2022-11-27T11:07:27.006Z,6.50
2022-11-27T11:09:56.903Z,5.50
2022-11-27T11:12:26.397Z,5.75
2022-11-27T11:14:59.242Z,4.95
2022-11-27T11:17:41.101Z,5.40
2022-11-27T11:20:21.965Z,7.82
2022-11-27T11:22:57.293Z,5.85
2022-11-27T11:25:37.365Z,7.10
2022-11-27T11:28:08.520Z,5.18
2022-11-27T11:30:39.957Z,6.82
2022-11-27T11:33:18.032Z,5.25
2022-11-27T11:35:56.252Z,5.03
2022-11-27T11:38:33.006Z,5.68
2022-11-27T11:41:06.844Z,5.63
2022-11-27T11:43:37.700Z,6.70
2022-11-27T11:46:20.798Z,6.05
2022-11-27T11:49:03.083Z,6.38
2022-11-27T11:51:51.132Z,6.32
2022-11-27T11:54:39.804Z,6.35
2022-11-27T11:57:23.282Z,5.93
2022-11-27T12:00:05.536Z,5.70
2022-11-27T12:02:55.045Z,5.93
2022-11-27T12:05:38.079Z,5.93
2022-11-27T12:08:23.025Z,5.25
2022-11-27T12:11:04.500Z,6.03
2022-11-27T12:13:51.565Z,4.82
2022-11-27T12:16:28.713Z,5.90
2022-11-27T12:19:18.768Z,6.93
2022-11-27T12:22:02.843Z,5.32
2022-11-27T12:24:48.132Z,5.32
2022-11-27T12:27:29.183Z,5.70
2022-11-27T12:30:12.499Z,5.03
2022-11-27T12:32:56.815Z,5.15
2022-11-27T12:35:38.616Z,4.32
2022-11-27T12:38:38.718Z,5.53
2022-11-27T12:41:37.684Z,5.15
2022-11-27T12:44:18.395Z,5.10
2022-11-27T12:46:56.574Z,5.32
2022-11-27T12:49:31.633Z,4.50
2022-11-27T12:52:12.974Z,5.47
2022-11-27T12:54:48.161Z,4.75
2022-11-27T12:57:23.728Z,5.50
2022-11-27T12:59:58.527Z,5.53
2022-11-27T13:05:05.634Z,6.20
2022-11-27T13:07:43.613Z,4.32
2022-11-27T13:10:23.555Z,5.47
2022-11-27T13:13:03.219Z,5.55
2022-11-27T13:15:39.473Z,3.78
2022-11-27T13:18:20.430Z,5.43
2022-11-27T13:20:56.004Z,3.90
2022-11-27T13:23:42.752Z,4.97
2022-11-27T13:26:26.306Z,4.82
2022-11-27T13:29:06.639Z,3.95
2022-11-27T13:31:40.970Z,4.03
2022-11-27T13:34:21.618Z,5.55
2022-11-27T13:37:04.475Z,4.32
2022-11-27T13:39:40.336Z,4.10
2022-11-27T13:42:23.899Z,4.70
2022-11-27T13:44:57.844Z,4.88
2022-11-27T13:47:38.558Z,4.90
2022-11-27T13:50:18.048Z,4.22
2022-11-27T13:53:05.641Z,5.43
2022-11-27T13:55:54.721Z,4.28
2022-11-27T13:58:35.366Z,4.55
2022-11-27T14:01:15.658Z,3.92
2022-11-27T14:03:50.692Z,3.50
2022-11-27T14:06:27.901Z,4.35
2022-11-27T14:09:01.345Z,3.67
2022-11-27T14:11:40.527Z,4.60
2022-11-27T14:14:21.647Z,4.72
2022-11-27T14:16:59.627Z,3.72
2022-11-27T14:19:37.093Z,4.35
2022-11-27T14:22:20.069Z,4.88
2022-11-27T14:24:59.280Z,4.28
2022-11-27T14:27:36.463Z,4.75
2022-11-27T14:30:25.135Z,4.68
2022-11-27T14:32:55.997Z,4.28
2022-11-27T14:35:28.002Z,4.13
2022-11-27T14:38:11.613Z,4.72
2022-11-27T14:40:40.689Z,3.92
2022-11-27T14:43:15.160Z,4.07
2022-11-27T14:45:46.524Z,4.20
2022-11-27T14:48:22.159Z,5.80
2022-11-27T14:50:54.486Z,5.53
2022-11-27T14:53:27.475Z,4.07
2022-11-27T14:56:02.384Z,4.80
2022-11-27T14:58:32.062Z,3.80
2022-11-27T15:01:07.998Z,4.25
2022-11-27T15:03:41.195Z,5.18
2022-11-27T15:06:21.904Z,4.47
2022-11-27T15:09:09.125Z,5.00
2022-11-27T15:11:55.548Z,3.80
2022-11-27T15:14:27.259Z,4.20
2022-11-27T15:16:58.319Z,3.67
2022-11-27T15:19:30.866Z,4.60
2022-11-27T15:22:01.995Z,5.82
2022-11-27T15:24:34.235Z,4.43
2022-11-27T15:27:20.132Z,4.78
2022-11-27T15:30:04.802Z,4.03
2022-11-27T15:32:56.918Z,4.40
2022-11-27T15:35:38.501Z,4.65
2022-11-27T15:38:12.504Z,4.72
2022-11-27T15:40:42.534Z,4.53
2022-11-27T15:43:28.161Z,5.53
2022-11-27T15:46:10.470Z,3.63
2022-11-27T15:48:57.352Z,5.88
2022-11-27T15:51:26.412Z,4.70
2022-11-27T15:53:56.709Z,5.45
2022-11-27T15:56:25.946Z,4.60
2022-11-27T15:58:55.178Z,4.38
2022-11-27T16:01:25.830Z,4.75
2022-11-27T16:04:10.557Z,4.45
2022-11-27T16:06:43.810Z,4.63
2022-11-27T16:09:26.968Z,4.47
2022-11-27T16:11:59.569Z,4.28
2022-11-27T16:14:35.405Z,4.85
2022-11-27T16:17:10.800Z,5.53
2022-11-27T16:19:48.013Z,4.57
2022-11-27T16:22:35.681Z,4.95
2022-11-27T16:25:09.830Z,4.18
2022-11-27T16:27:43.154Z,4.67
2022-11-27T16:30:23.008Z,4.78
2022-11-27T16:32:57.372Z,5.72
2022-11-27T16:35:43.073Z,5.50
2022-11-27T16:38:26.073Z,5.15
2022-11-27T16:41:08.469Z,4.75
2022-11-27T16:43:50.518Z,4.90
2022-11-27T16:46:37.001Z,4.97
2022-11-27T16:49:08.635Z,4.22
2022-11-27T16:51:45.651Z,5.40
2022-11-27T16:54:19.289Z,4.85
2022-11-27T16:56:59.100Z,5.35
2022-11-27T16:59:32.716Z,5.70
2022-11-27T17:02:10.506Z,5.85
2022-11-27T17:04:45.889Z,5.28
2022-11-27T17:07:18.605Z,4.90
2022-11-27T17:09:53.647Z,5.70
2022-11-27T17:12:28.238Z,4.80
2022-11-27T17:15:04.407Z,6.03
2022-11-27T17:18:00.034Z,6.43
2022-11-27T17:20:35.803Z,4.85
2022-11-27T17:23:24.343Z,4.65
2022-11-27T17:25:57.223Z,4.40
2022-11-27T17:28:39.020Z,4.65
2022-11-27T17:31:25.021Z,4.30
2022-11-27T17:33:58.054Z,6.03
2022-11-27T17:36:45.099Z,5.28
2022-11-27T17:39:16.185Z,5.35
2022-11-27T17:44:39.422Z,4.32
2022-11-27T17:47:28.954Z,5.05
2022-11-27T17:50:02.942Z,5.18
2022-11-27T17:52:34.870Z,4.75
2022-11-27T17:55:23.158Z,5.03
2022-11-27T17:58:05.566Z,6.70
2022-11-27T18:00:50.561Z,4.60
2022-11-27T18:03:24.084Z,4.63
2022-11-27T18:05:55.974Z,4.30
2022-11-27T18:11:01.602Z,6.68
2022-11-27T18:13:39.237Z,4.30
2022-11-27T18:16:25.015Z,4.45
2022-11-27T18:19:02.072Z,4.18
2022-11-27T18:21:58.843Z,4.50
2022-11-27T18:24:36.504Z,5.93
2022-11-27T18:27:10.411Z,5.47
2022-11-27T18:29:47.413Z,4.22
2022-11-27T18:32:29.458Z,4.72
2022-11-27T18:35:05.888Z,5.40
2022-11-27T18:37:42.036Z,5.00
2022-11-27T18:40:23.535Z,8.07
2022-11-27T18:43:04.946Z,7.15
2022-11-27T18:45:41.450Z,5.35
2022-11-27T18:48:33.179Z,5.95
2022-11-27T18:51:12.060Z,5.20
2022-11-27T18:53:52.464Z,5.82
2022-11-27T18:56:29.754Z,5.65
2022-11-27T18:59:06.601Z,5.15
2022-11-27T19:01:47.693Z,4.70
2022-11-27T19:04:25.637Z,4.65
2022-11-27T19:06:56.393Z,4.60
2022-11-27T19:09:32.920Z,5.03
2022-11-27T19:12:05.929Z,6.25
2022-11-27T19:14:40.979Z,5.60
2022-11-27T19:17:25.683Z,4.75
2022-11-27T19:20:04.115Z,5.25
2022-11-27T19:22:48.973Z,5.78
2022-11-27T19:25:32.008Z,5.45
2022-11-27T19:28:08.925Z,5.22
2022-11-27T19:30:44.298Z,4.80
2022-11-27T19:33:14.923Z,4.65
2022-11-27T19:36:01.484Z,6.28
2022-11-27T19:38:34.316Z,5.05
2022-11-27T19:41:22.431Z,4.88
2022-11-27T19:43:59.468Z,11.20
2022-11-27T19:46:37.723Z,7.20
2022-11-27T19:49:20.311Z,5.13
2022-11-27T19:51:59.090Z,5.25
2022-11-27T19:54:32.725Z,6.20
2022-11-27T19:57:08.947Z,6.22
2022-11-27T20:00:04.497Z,6.03
2022-11-27T20:02:47.977Z,6.07
2022-11-27T20:05:18.885Z,5.47
2022-11-27T20:07:52.480Z,4.70
2022-11-27T20:10:28.292Z,5.63
2022-11-27T20:13:05.101Z,4.78
2022-11-27T20:15:35.918Z,6.45
2022-11-27T20:18:22.209Z,6.70
2022-11-27T20:20:53.887Z,5.85
2022-11-27T20:23:37.368Z,5.20
2022-11-27T20:26:25.977Z,6.88
2022-11-27T20:29:06.085Z,5.75
2022-11-27T20:31:53.892Z,4.70
2022-11-27T20:34:26.836Z,6.35
2022-11-27T20:37:08.078Z,6.20
2022-11-27T20:39:52.305Z,6.00
2022-11-27T20:42:30.667Z,7.65
2022-11-27T20:45:13.167Z,5.15
2022-11-27T20:47:54.223Z,6.68
2022-11-27T20:50:24.594Z,7.25
2022-11-27T20:53:03.270Z,5.68
2022-11-27T20:55:36.952Z,5.85
2022-11-27T20:58:20.180Z,7.07
2022-11-27T21:00:53.540Z,5.60
2022-11-27T21:03:33.905Z,5.72
2022-11-27T21:06:10.508Z,7.10
2022-11-27T21:08:43.392Z,5.90
2022-11-27T21:11:25.444Z,5.10
2022-11-27T21:14:03.735Z,6.25
2022-11-27T21:16:45.813Z,5.68
2022-11-27T21:19:22.064Z,5.90
2022-11-27T21:21:54.213Z,6.68
2022-11-27T21:24:30.423Z,6.80
2022-11-27T21:27:02.444Z,6.57
2022-11-27T21:29:42.464Z,5.80
2022-11-27T21:32:23.658Z,6.05
2022-11-27T21:34:58.937Z,6.28
2022-11-27T21:37:45.003Z,6.82
2022-11-27T21:40:22.136Z,6.45
2022-11-27T21:42:57.910Z,5.75
2022-11-27T21:45:28.722Z,6.35
2022-11-27T21:48:06.362Z,6.00
2022-11-27T21:50:42.693Z,5.75
2022-11-27T21:53:15.307Z,5.22
2022-11-27T21:55:52.295Z,5.47
2022-11-27T21:58:34.385Z,5.75
2022-11-27T22:01:08.064Z,6.95
2022-11-27T22:03:51.386Z,5.85
2022-11-27T22:06:21.415Z,5.88
2022-11-27T22:09:07.421Z,6.32
2022-11-27T22:11:44.880Z,4.70
2022-11-27T22:14:18.198Z,6.25
2022-11-27T22:16:56.002Z,5.35
2022-11-27T22:19:29.411Z,4.65
2022-11-27T22:22:05.878Z,5.88
2022-11-27T22:24:37.837Z,6.30
2022-11-27T22:27:12.457Z,4.70
2022-11-27T22:29:47.303Z,6.78
2022-11-27T22:32:18.802Z,4.90
2022-11-27T22:37:32.348Z,5.63
2022-11-27T22:40:02.923Z,6.13
2022-11-27T22:42:31.727Z,6.30
2022-11-27T22:45:08.812Z,6.07
2022-11-27T22:47:42.559Z,5.80
2022-11-27T22:50:16.549Z,6.73
2022-11-27T22:52:58.057Z,6.78
2022-11-27T22:55:28.164Z,7.78
2022-11-27T22:58:08.963Z,6.68
2022-11-27T23:00:39.294Z,5.78
2022-11-27T23:03:09.185Z,6.72
2022-11-27T23:05:41.818Z,6.35
2022-11-27T23:08:12.761Z,6.90
2022-11-27T23:10:48.551Z,7.43
2022-11-27T23:13:20.315Z,5.65
2022-11-27T23:15:56.748Z,7.22
2022-11-27T23:18:43.489Z,6.00
2022-11-27T23:21:15.245Z,5.57
2022-11-27T23:23:44.832Z,5.82
2022-11-27T23:26:19.472Z,6.70
2022-11-27T23:28:49.583Z,5.78
2022-11-27T23:31:30.079Z,6.75
2022-11-27T23:34:07.186Z,6.40
2022-11-27T23:36:41.060Z,6.82
2022-11-27T23:39:16.108Z,7.05
2022-11-27T23:41:50.974Z,7.53
2022-11-27T23:44:24.218Z,6.53
2022-11-27T23:46:56.558Z,5.93
2022-11-27T23:49:26.121Z,6.75
2022-11-27T23:51:59.739Z,6.13
2022-11-27T23:54:30.416Z,7.77
2022-11-27T23:57:10.284Z,7.40
2022-11-27T23:59:42.793Z,6.63
